sensor_id;sensor_type;location;lat;lon;timestamp;pressure;altitude;pressure_sealevel;temperature;humidity
61697;BME280;47610;52.252;20.922;2022-11-20T00:01:35;100122.25;;;-3.99;79.73
61697;BME280;47610;52.252;20.922;2022-11-20T00:06:58;100123.78;;;-4.08;79.96
61697;BME280;47610;52.252;20.922;2022-11-20T00:12:20;100121.16;;;-4.18;80.17
61697;BME280;47610;52.252;20.922;2022-11-20T00:17:44;100125.50;;;-4.28;80.41
61697;BME280;47610;52.252;20.922;2022-11-20T00:23:06;100113.65;;;-4.47;81.13
61697;BME280;47610;52.252;20.922;2022-11-20T00:28:29;100117.05;;;-4.46;81.73
61697;BME280;47610;52.252;20.922;2022-11-20T00:33:53;100120.25;;;-4.43;81.81
61697;BME280;47610;52.252;20.922;2022-11-20T00:39:16;100117.54;;;-4.41;82.51
61697;BME280;47610;52.252;20.922;2022-11-20T00:44:38;100114.64;;;-4.47;82.80
61697;BME280;47610;52.252;20.922;2022-11-20T00:50:00;100110.90;;;-4.49;83.41
61697;BME280;47610;52.252;20.922;2022-11-20T00:55:23;100106.64;;;-4.46;83.87
61697;BME280;47610;52.252;20.922;2022-11-20T01:00:45;100099.64;;;-4.41;83.64
61697;BME280;47610;52.252;20.922;2022-11-20T01:06:11;100097.19;;;-4.39;83.95
61697;BME280;47610;52.252;20.922;2022-11-20T01:11:36;100091.38;;;-4.35;84.07
61697;BME280;47610;52.252;20.922;2022-11-20T01:16:58;100087.10;;;-4.31;84.12
61697;BME280;47610;52.252;20.922;2022-11-20T01:22:20;100080.00;;;-4.30;84.31
61697;BME280;47610;52.252;20.922;2022-11-20T01:27:42;100074.78;;;-4.24;83.48
61697;BME280;47610;52.252;20.922;2022-11-20T01:33:05;100072.84;;;-4.14;83.52
61697;BME280;47610;52.252;20.922;2022-11-20T01:38:27;100068.98;;;-4.11;83.29
61697;BME280;47610;52.252;20.922;2022-11-20T01:43:49;100057.63;;;-4.14;83.09
61697;BME280;47610;52.252;20.922;2022-11-20T01:49:18;100069.98;;;-4.19;83.04
61697;BME280;47610;52.252;20.922;2022-11-20T01:54:46;100080.24;;;-4.17;82.85
61697;BME280;47610;52.252;20.922;2022-11-20T02:00:15;100080.45;;;-4.18;83.13
61697;BME280;47610;52.252;20.922;2022-11-20T02:05:43;100088.91;;;-4.15;83.33
61697;BME280;47610;52.252;20.922;2022-11-20T02:11:07;100088.24;;;-4.15;82.50
61697;BME280;47610;52.252;20.922;2022-11-20T02:16:32;100085.23;;;-4.19;82.69
61697;BME280;47610;52.252;20.922;2022-11-20T02:22:02;100077.96;;;-4.21;83.08
61697;BME280;47610;52.252;20.922;2022-11-20T02:27:28;100078.15;;;-4.25;83.23
61697;BME280;47610;52.252;20.922;2022-11-20T02:32:51;100073.85;;;-4.32;83.86
61697;BME280;47610;52.252;20.922;2022-11-20T02:38:14;100072.23;;;-4.32;84.42
61697;BME280;47610;52.252;20.922;2022-11-20T02:43:36;100064.05;;;-4.34;85.31
61697;BME280;47610;52.252;20.922;2022-11-20T02:48:59;100062.39;;;-4.41;86.11
61697;BME280;47610;52.252;20.922;2022-11-20T02:54:21;100057.40;;;-4.49;86.85
61697;BME280;47610;52.252;20.922;2022-11-20T02:59:45;100056.17;;;-4.49;87.15
61697;BME280;47610;52.252;20.922;2022-11-20T03:05:08;100058.26;;;-4.47;87.43
61697;BME280;47610;52.252;20.922;2022-11-20T03:10:31;100059.57;;;-4.43;87.66
61697;BME280;47610;52.252;20.922;2022-11-20T03:15:54;100055.30;;;-4.43;88.06
61697;BME280;47610;52.252;20.922;2022-11-20T03:21:17;100044.63;;;-4.50;88.51
61697;BME280;47610;52.252;20.922;2022-11-20T03:26:40;100040.52;;;-4.54;89.33
61697;BME280;47610;52.252;20.922;2022-11-20T03:32:02;100044.04;;;-4.54;89.33
61697;BME280;47610;52.252;20.922;2022-11-20T03:37:24;100040.95;;;-4.49;89.89
61697;BME280;47610;52.252;20.922;2022-11-20T03:42:46;100043.76;;;-4.47;90.29
61697;BME280;47610;52.252;20.922;2022-11-20T03:48:09;100042.19;;;-4.47;90.03
61697;BME280;47610;52.252;20.922;2022-11-20T03:53:31;100041.38;;;-4.49;90.51
61697;BME280;47610;52.252;20.922;2022-11-20T03:58:54;100044.48;;;-4.58;90.85
61697;BME280;47610;52.252;20.922;2022-11-20T04:04:16;100044.62;;;-4.60;91.66
61697;BME280;47610;52.252;20.922;2022-11-20T04:09:39;100047.23;;;-4.60;91.83
61697;BME280;47610;52.252;20.922;2022-11-20T04:15:02;100045.38;;;-4.61;91.95
61697;BME280;47610;52.252;20.922;2022-11-20T04:20:24;100047.70;;;-4.64;92.54
61697;BME280;47610;52.252;20.922;2022-11-20T04:25:47;100046.99;;;-4.64;92.90
61697;BME280;47610;52.252;20.922;2022-11-20T04:31:11;100041.94;;;-4.63;93.99
61697;BME280;47610;52.252;20.922;2022-11-20T04:36:32;100041.89;;;-4.60;93.75
61697;BME280;47610;52.252;20.922;2022-11-20T04:41:55;100043.74;;;-4.63;94.46
61697;BME280;47610;52.252;20.922;2022-11-20T04:47:17;100044.55;;;-4.71;94.39
61697;BME280;47610;52.252;20.922;2022-11-20T04:52:40;100041.78;;;-4.80;95.01
61697;BME280;47610;52.252;20.922;2022-11-20T04:58:03;100044.80;;;-4.83;94.94
61697;BME280;47610;52.252;20.922;2022-11-20T05:03:26;100043.62;;;-4.80;95.09
61697;BME280;47610;52.252;20.922;2022-11-20T05:08:48;100037.70;;;-4.84;94.91
61697;BME280;47610;52.252;20.922;2022-11-20T05:14:12;100038.58;;;-4.92;95.37
61697;BME280;47610;52.252;20.922;2022-11-20T05:19:35;100033.39;;;-4.99;95.24
61697;BME280;47610;52.252;20.922;2022-11-20T05:24:57;100026.79;;;-5.12;95.69
61697;BME280;47610;52.252;20.922;2022-11-20T05:30:20;100021.11;;;-5.21;96.09
61697;BME280;47610;52.252;20.922;2022-11-20T05:35:42;100019.75;;;-5.26;96.34
61697;BME280;47610;52.252;20.922;2022-11-20T05:41:10;100020.36;;;-5.31;96.55
61697;BME280;47610;52.252;20.922;2022-11-20T05:46:32;100020.48;;;-5.38;96.66
61697;BME280;47610;52.252;20.922;2022-11-20T05:51:56;100014.44;;;-5.45;97.17
61697;BME280;47610;52.252;20.922;2022-11-20T05:57:19;100009.45;;;-5.42;96.89
61697;BME280;47610;52.252;20.922;2022-11-20T06:02:41;100010.09;;;-5.38;97.31
61697;BME280;47610;52.252;20.922;2022-11-20T06:08:04;99999.23;;;-5.46;97.18
61697;BME280;47610;52.252;20.922;2022-11-20T06:13:26;99994.75;;;-5.52;97.46
61697;BME280;47610;52.252;20.922;2022-11-20T06:18:49;99992.80;;;-5.51;97.61
61697;BME280;47610;52.252;20.922;2022-11-20T06:24:13;99988.86;;;-5.46;97.55
61697;BME280;47610;52.252;20.922;2022-11-20T06:29:36;99987.52;;;-5.46;97.59
61697;BME280;47610;52.252;20.922;2022-11-20T06:34:58;99985.20;;;-5.49;97.49
61697;BME280;47610;52.252;20.922;2022-11-20T06:40:21;99993.31;;;-5.45;97.42
61697;BME280;47610;52.252;20.922;2022-11-20T06:45:43;99991.16;;;-5.32;97.15
61697;BME280;47610;52.252;20.922;2022-11-20T06:51:07;99988.52;;;-5.24;96.88
61697;BME280;47610;52.252;20.922;2022-11-20T06:56:30;99982.20;;;-5.19;96.55
61697;BME280;47610;52.252;20.922;2022-11-20T07:01:52;99988.77;;;-5.11;96.33
61697;BME280;47610;52.252;20.922;2022-11-20T07:07:15;99979.66;;;-5.02;96.23
61697;BME280;47610;52.252;20.922;2022-11-20T07:12:37;99981.77;;;-4.90;96.11
61697;BME280;47610;52.252;20.922;2022-11-20T07:18:02;99981.42;;;-4.80;95.92
61697;BME280;47610;52.252;20.922;2022-11-20T07:27:58;99978.56;;;-4.54;95.15
61697;BME280;47610;52.252;20.922;2022-11-20T07:33:22;99976.38;;;-4.48;94.66
61697;BME280;47610;52.252;20.922;2022-11-20T07:38:44;99975.02;;;-4.40;94.08
61697;BME280;47610;52.252;20.922;2022-11-20T07:44:06;99978.09;;;-4.33;93.48
61697;BME280;47610;52.252;20.922;2022-11-20T07:49:29;99969.18;;;-4.23;93.54
61697;BME280;47610;52.252;20.922;2022-11-20T07:54:51;99969.03;;;-4.15;92.90
61697;BME280;47610;52.252;20.922;2022-11-20T08:00:16;99966.92;;;-4.07;92.93
61697;BME280;47610;52.252;20.922;2022-11-20T08:05:39;99963.14;;;-3.92;92.67
61697;BME280;47610;52.252;20.922;2022-11-20T08:11:01;99966.67;;;-3.69;91.96
61697;BME280;47610;52.252;20.922;2022-11-20T08:16:23;99963.76;;;-2.55;91.02
61697;BME280;47610;52.252;20.922;2022-11-20T08:21:45;99966.59;;;-0.53;87.30
61697;BME280;47610;52.252;20.922;2022-11-20T08:27:08;99965.96;;;1.64;80.73
61697;BME280;47610;52.252;20.922;2022-11-20T08:32:32;99958.65;;;2.53;73.28
61697;BME280;47610;52.252;20.922;2022-11-20T08:37:55;99957.71;;;2.38;68.96
61697;BME280;47610;52.252;20.922;2022-11-20T08:43:17;99959.86;;;2.02;67.36
61697;BME280;47610;52.252;20.922;2022-11-20T08:48:40;99952.27;;;2.32;65.85
61697;BME280;47610;52.252;20.922;2022-11-20T08:54:02;99946.86;;;3.49;62.85
61697;BME280;47610;52.252;20.922;2022-11-20T08:59:25;99928.85;;;4.51;59.89
61697;BME280;47610;52.252;20.922;2022-11-20T09:04:47;99921.50;;;5.40;56.61
61697;BME280;47610;52.252;20.922;2022-11-20T09:10:10;99924.52;;;6.19;54.50
61697;BME280;47610;52.252;20.922;2022-11-20T09:15:35;99920.98;;;6.65;51.93
61697;BME280;47610;52.252;20.922;2022-11-20T09:21:00;99918.40;;;6.81;50.63
61697;BME280;47610;52.252;20.922;2022-11-20T09:26:25;99916.09;;;6.40;49.27
61697;BME280;47610;52.252;20.922;2022-11-20T09:31:48;99912.58;;;6.00;48.94
61697;BME280;47610;52.252;20.922;2022-11-20T09:37:10;99911.86;;;6.14;48.73
61697;BME280;47610;52.252;20.922;2022-11-20T09:42:40;99903.27;;;6.20;48.55
61697;BME280;47610;52.252;20.922;2022-11-20T09:48:24;99903.21;;;6.50;47.81
61697;BME280;47610;52.252;20.922;2022-11-20T09:54:03;99903.73;;;6.22;47.60
61697;BME280;47610;52.252;20.922;2022-11-20T09:59:35;99905.15;;;5.51;47.83
61697;BME280;47610;52.252;20.922;2022-11-20T10:05:06;99894.04;;;4.88;48.95
61697;BME280;47610;52.252;20.922;2022-11-20T10:10:35;99893.73;;;4.38;49.96
61697;BME280;47610;52.252;20.922;2022-11-20T10:16:15;99891.71;;;3.95;51.06
61697;BME280;47610;52.252;20.922;2022-11-20T10:21:55;99883.66;;;3.64;52.28
61697;BME280;47610;52.252;20.922;2022-11-20T10:27:44;99878.81;;;3.55;52.82
61697;BME280;47610;52.252;20.922;2022-11-20T10:33:15;99866.98;;;3.25;53.61
61697;BME280;47610;52.252;20.922;2022-11-20T10:38:44;99874.63;;;3.08;54.70
61697;BME280;47610;52.252;20.922;2022-11-20T10:44:14;99863.17;;;2.77;55.44
61697;BME280;47610;52.252;20.922;2022-11-20T10:49:36;99861.78;;;2.71;56.71
61697;BME280;47610;52.252;20.922;2022-11-20T10:55:10;99868.67;;;2.68;57.32
61697;BME280;47610;52.252;20.922;2022-11-20T11:00:34;99864.77;;;2.55;57.88
61697;BME280;47610;52.252;20.922;2022-11-20T11:06:02;99866.00;;;2.44;58.45
61697;BME280;47610;52.252;20.922;2022-11-20T11:11:30;99858.54;;;2.33;59.11
61697;BME280;47610;52.252;20.922;2022-11-20T11:16:56;99854.52;;;2.28;60.01
61697;BME280;47610;52.252;20.922;2022-11-20T11:22:19;99853.77;;;2.21;60.36
61697;BME280;47610;52.252;20.922;2022-11-20T11:27:49;99848.88;;;2.21;60.90
61697;BME280;47610;52.252;20.922;2022-11-20T11:33:22;99847.80;;;2.17;61.07
61697;BME280;47610;52.252;20.922;2022-11-20T11:38:45;99839.66;;;2.12;61.12
61697;BME280;47610;52.252;20.922;2022-11-20T11:44:17;99834.62;;;2.03;61.22
61697;BME280;47610;52.252;20.922;2022-11-20T11:49:41;99833.80;;;1.81;61.49
61697;BME280;47610;52.252;20.922;2022-11-20T11:55:09;99823.27;;;1.61;62.48
61697;BME280;47610;52.252;20.922;2022-11-20T12:00:35;99824.48;;;1.56;63.24
61697;BME280;47610;52.252;20.922;2022-11-20T12:06:01;99819.21;;;1.55;63.47
61697;BME280;47610;52.252;20.922;2022-11-20T12:11:33;99811.70;;;1.58;63.71
61697;BME280;47610;52.252;20.922;2022-11-20T12:17:00;99807.98;;;1.51;64.04
61697;BME280;47610;52.252;20.922;2022-11-20T12:22:31;99803.55;;;1.39;64.43
61697;BME280;47610;52.252;20.922;2022-11-20T12:28:16;99800.98;;;1.34;64.83
61697;BME280;47610;52.252;20.922;2022-11-20T12:34:01;99790.13;;;1.35;65.32
61697;BME280;47610;52.252;20.922;2022-11-20T12:39:42;99785.48;;;1.39;65.40
61697;BME280;47610;52.252;20.922;2022-11-20T12:51:06;99770.70;;;1.36;65.86
61697;BME280;47610;52.252;20.922;2022-11-20T12:56:39;99769.78;;;1.31;65.63
61697;BME280;47610;52.252;20.922;2022-11-20T13:02:18;99764.13;;;1.20;65.88
61697;BME280;47610;52.252;20.922;2022-11-20T13:07:46;99753.70;;;1.13;66.65
61697;BME280;47610;52.252;20.922;2022-11-20T13:13:14;99746.58;;;1.01;66.82
61697;BME280;47610;52.252;20.922;2022-11-20T13:18:42;99739.08;;;0.84;67.33
61697;BME280;47610;52.252;20.922;2022-11-20T13:24:23;99738.46;;;0.70;68.32
61697;BME280;47610;52.252;20.922;2022-11-20T13:29:58;99728.54;;;0.59;68.78
61697;BME280;47610;52.252;20.922;2022-11-20T13:35:32;99726.13;;;0.49;69.40
61697;BME280;47610;52.252;20.922;2022-11-20T13:40:57;99725.02;;;0.35;70.12
61697;BME280;47610;52.252;20.922;2022-11-20T13:46:20;99729.63;;;0.25;71.19
61697;BME280;47610;52.252;20.922;2022-11-20T13:51:45;99724.46;;;0.20;71.90
61697;BME280;47610;52.252;20.922;2022-11-20T14:03:16;99708.45;;;0.11;72.72
61697;BME280;47610;52.252;20.922;2022-11-20T14:08:41;99709.36;;;0.08;73.28
61697;BME280;47610;52.252;20.922;2022-11-20T14:14:03;99697.52;;;0.01;73.78
61697;BME280;47610;52.252;20.922;2022-11-20T14:19:28;99695.70;;;-0.02;74.19
61697;BME280;47610;52.252;20.922;2022-11-20T14:25:04;99701.42;;;0.03;74.76
61697;BME280;47610;52.252;20.922;2022-11-20T14:30:29;99701.48;;;0.11;76.10
61697;BME280;47610;52.252;20.922;2022-11-20T14:35:58;99693.80;;;0.14;77.97
61697;BME280;47610;52.252;20.922;2022-11-20T14:41:21;99684.39;;;0.14;79.34
61697;BME280;47610;52.252;20.922;2022-11-20T14:46:44;99696.61;;;0.03;80.81
61697;BME280;47610;52.252;20.922;2022-11-20T14:52:15;99690.80;;;-0.02;81.82
61697;BME280;47610;52.252;20.922;2022-11-20T14:57:38;99686.67;;;-0.03;82.59
61697;BME280;47610;52.252;20.922;2022-11-20T15:03:00;99677.00;;;-0.04;83.49
61697;BME280;47610;52.252;20.922;2022-11-20T15:08:22;99671.74;;;-0.07;84.28
61697;BME280;47610;52.252;20.922;2022-11-20T15:13:44;99679.46;;;-0.10;85.48
61697;BME280;47610;52.252;20.922;2022-11-20T15:19:18;99675.16;;;-0.22;86.43
61697;BME280;47610;52.252;20.922;2022-11-20T15:24:41;99675.98;;;-0.28;87.40
61697;BME280;47610;52.252;20.922;2022-11-20T15:30:04;99680.02;;;-0.34;88.26
61697;BME280;47610;52.252;20.922;2022-11-20T15:35:34;99684.01;;;-0.38;88.33
61697;BME280;47610;52.252;20.922;2022-11-20T15:40:56;99681.04;;;-0.46;89.28
61697;BME280;47610;52.252;20.922;2022-11-20T15:46:25;99677.65;;;-0.55;89.97
61697;BME280;47610;52.252;20.922;2022-11-20T15:51:50;99677.78;;;-0.73;90.34
61697;BME280;47610;52.252;20.922;2022-11-20T15:57:12;99670.63;;;-0.91;91.27
61697;BME280;47610;52.252;20.922;2022-11-20T16:02:34;99666.39;;;-1.01;91.80
61697;BME280;47610;52.252;20.922;2022-11-20T16:07:57;99664.19;;;-1.09;92.28
61697;BME280;47610;52.252;20.922;2022-11-20T16:13:19;99655.11;;;-1.13;93.11
61697;BME280;47610;52.252;20.922;2022-11-20T16:18:41;99653.99;;;-1.19;93.48
61697;BME280;47610;52.252;20.922;2022-11-20T16:24:04;99653.80;;;-1.31;94.20
61697;BME280;47610;52.252;20.922;2022-11-20T16:29:27;99657.82;;;-1.37;94.89
61697;BME280;47610;52.252;20.922;2022-11-20T16:34:50;99658.95;;;-1.48;95.30
61697;BME280;47610;52.252;20.922;2022-11-20T16:40:14;99663.52;;;-1.58;96.35
61697;BME280;47610;52.252;20.922;2022-11-20T16:45:36;99661.58;;;-1.68;96.77
61697;BME280;47610;52.252;20.922;2022-11-20T16:51:01;99656.71;;;-1.71;97.30
61697;BME280;47610;52.252;20.922;2022-11-20T16:56:25;99657.90;;;-1.74;97.90
61697;BME280;47610;52.252;20.922;2022-11-20T17:01:47;99652.42;;;-1.75;98.09
61697;BME280;47610;52.252;20.922;2022-11-20T17:07:09;99647.20;;;-1.70;98.42
61697;BME280;47610;52.252;20.922;2022-11-20T17:12:31;99643.68;;;-1.67;98.72
61697;BME280;47610;52.252;20.922;2022-11-20T17:17:54;99647.33;;;-1.65;98.80
61697;BME280;47610;52.252;20.922;2022-11-20T17:23:16;99648.34;;;-1.71;99.13
61697;BME280;47610;52.252;20.922;2022-11-20T17:28:39;99650.98;;;-1.79;99.24
61697;BME280;47610;52.252;20.922;2022-11-20T17:34:01;99647.95;;;-1.92;99.53
61697;BME280;47610;52.252;20.922;2022-11-20T17:39:23;99642.58;;;-2.12;99.96
61697;BME280;47610;52.252;20.922;2022-11-20T17:44:46;99635.13;;;-2.27;100.00
61697;BME280;47610;52.252;20.922;2022-11-20T17:50:09;99624.13;;;-2.40;100.00
61697;BME280;47610;52.252;20.922;2022-11-20T17:55:32;99616.10;;;-2.51;100.00
61697;BME280;47610;52.252;20.922;2022-11-20T18:00:53;99610.13;;;-2.57;100.00
61697;BME280;47610;52.252;20.922;2022-11-20T18:06:17;99609.71;;;-2.56;100.00
61697;BME280;47610;52.252;20.922;2022-11-20T18:11:40;99601.80;;;-2.54;100.00
61697;BME280;47610;52.252;20.922;2022-11-20T18:17:04;99591.80;;;-2.50;100.00
61697;BME280;47610;52.252;20.922;2022-11-20T18:22:27;99584.05;;;-2.47;100.00
61697;BME280;47610;52.252;20.922;2022-11-20T18:27:49;99581.63;;;-2.44;100.00
61697;BME280;47610;52.252;20.922;2022-11-20T18:33:11;99582.49;;;-2.41;100.00
61697;BME280;47610;52.252;20.922;2022-11-20T18:38:33;99592.19;;;-2.39;100.00
61697;BME280;47610;52.252;20.922;2022-11-20T18:43:55;99595.50;;;-2.34;100.00
61697;BME280;47610;52.252;20.922;2022-11-20T18:49:17;99594.65;;;-2.28;100.00
61697;BME280;47610;52.252;20.922;2022-11-20T18:54:39;99591.66;;;-2.26;100.00
61697;BME280;47610;52.252;20.922;2022-11-20T19:00:02;99585.92;;;-2.18;100.00
61697;BME280;47610;52.252;20.922;2022-11-20T19:05:25;99581.21;;;-2.12;100.00
61697;BME280;47610;52.252;20.922;2022-11-20T19:10:47;99559.11;;;-2.14;100.00
61697;BME280;47610;52.252;20.922;2022-11-20T19:16:12;99553.20;;;-2.22;100.00
61697;BME280;47610;52.252;20.922;2022-11-20T19:21:35;99545.63;;;-2.39;100.00
61697;BME280;47610;52.252;20.922;2022-11-20T19:26:57;99540.81;;;-2.56;100.00
61697;BME280;47610;52.252;20.922;2022-11-20T19:32:20;99535.08;;;-2.65;100.00
61697;BME280;47610;52.252;20.922;2022-11-20T19:37:43;99527.58;;;-2.71;100.00
61697;BME280;47610;52.252;20.922;2022-11-20T19:43:05;99521.67;;;-2.76;100.00
61697;BME280;47610;52.252;20.922;2022-11-20T19:48:30;99518.14;;;-2.78;100.00
61697;BME280;47610;52.252;20.922;2022-11-20T19:53:53;99517.79;;;-2.83;100.00
61697;BME280;47610;52.252;20.922;2022-11-20T19:59:18;99507.77;;;-2.89;100.00
61697;BME280;47610;52.252;20.922;2022-11-20T20:04:40;99508.23;;;-2.93;100.00
61697;BME280;47610;52.252;20.922;2022-11-20T20:10:02;99511.21;;;-2.92;100.00
61697;BME280;47610;52.252;20.922;2022-11-20T20:15:24;99507.69;;;-2.89;100.00
61697;BME280;47610;52.252;20.922;2022-11-20T20:20:47;99512.94;;;-2.86;100.00
61697;BME280;47610;52.252;20.922;2022-11-20T20:26:11;99508.61;;;-2.78;100.00
61697;BME280;47610;52.252;20.922;2022-11-20T20:31:34;99508.17;;;-2.65;100.00
61697;BME280;47610;52.252;20.922;2022-11-20T20:36:56;99513.39;;;-2.59;100.00
61697;BME280;47610;52.252;20.922;2022-11-20T20:42:19;99512.95;;;-2.52;100.00
61697;BME280;47610;52.252;20.922;2022-11-20T20:47:41;99510.35;;;-2.43;100.00
61697;BME280;47610;52.252;20.922;2022-11-20T20:53:03;99504.69;;;-2.37;100.00
61697;BME280;47610;52.252;20.922;2022-11-20T20:58:27;99504.97;;;-2.34;100.00
61697;BME280;47610;52.252;20.922;2022-11-20T21:03:50;99507.51;;;-2.35;100.00
61697;BME280;47610;52.252;20.922;2022-11-20T21:09:13;99496.16;;;-2.41;100.00
61697;BME280;47610;52.252;20.922;2022-11-20T21:14:35;99496.34;;;-2.45;100.00
61697;BME280;47610;52.252;20.922;2022-11-20T21:20:00;99495.22;;;-2.43;100.00
61697;BME280;47610;52.252;20.922;2022-11-20T21:25:23;99494.70;;;-2.35;100.00
61697;BME280;47610;52.252;20.922;2022-11-20T21:30:46;99489.77;;;-2.28;100.00
61697;BME280;47610;52.252;20.922;2022-11-20T21:36:11;99489.17;;;-2.24;100.00
61697;BME280;47610;52.252;20.922;2022-11-20T21:41:34;99492.61;;;-2.23;100.00
61697;BME280;47610;52.252;20.922;2022-11-20T21:46:57;99497.84;;;-2.22;100.00
61697;BME280;47610;52.252;20.922;2022-11-20T21:52:19;99500.48;;;-2.23;100.00
61697;BME280;47610;52.252;20.922;2022-11-20T21:57:41;99502.02;;;-2.24;100.00
61697;BME280;47610;52.252;20.922;2022-11-20T22:03:04;99503.49;;;-2.27;100.00
61697;BME280;47610;52.252;20.922;2022-11-20T22:08:27;99502.50;;;-2.28;100.00
61697;BME280;47610;52.252;20.922;2022-11-20T22:13:51;99503.15;;;-2.33;100.00
61697;BME280;47610;52.252;20.922;2022-11-20T22:19:16;99502.25;;;-2.41;100.00
61697;BME280;47610;52.252;20.922;2022-11-20T22:24:39;99500.55;;;-2.50;100.00
61697;BME280;47610;52.252;20.922;2022-11-20T22:30:01;99500.89;;;-2.55;100.00
61697;BME280;47610;52.252;20.922;2022-11-20T22:35:23;99502.69;;;-2.59;100.00
61697;BME280;47610;52.252;20.922;2022-11-20T22:40:46;99497.64;;;-2.66;100.00
61697;BME280;47610;52.252;20.922;2022-11-20T22:46:12;99498.13;;;-2.74;100.00
61697;BME280;47610;52.252;20.922;2022-11-20T22:51:36;99494.16;;;-2.80;100.00
61697;BME280;47610;52.252;20.922;2022-11-20T22:56:59;99492.91;;;-2.82;100.00
61697;BME280;47610;52.252;20.922;2022-11-20T23:02:21;99491.60;;;-2.88;100.00
61697;BME280;47610;52.252;20.922;2022-11-20T23:07:43;99489.09;;;-2.95;100.00
61697;BME280;47610;52.252;20.922;2022-11-20T23:13:06;99493.41;;;-3.02;100.00
61697;BME280;47610;52.252;20.922;2022-11-20T23:18:29;99497.59;;;-3.06;100.00
61697;BME280;47610;52.252;20.922;2022-11-20T23:23:55;99490.73;;;-3.12;100.00
61697;BME280;47610;52.252;20.922;2022-11-20T23:29:20;99499.92;;;-3.21;100.00
61697;BME280;47610;52.252;20.922;2022-11-20T23:34:42;99507.00;;;-3.32;100.00
61697;BME280;47610;52.252;20.922;2022-11-20T23:40:10;99519.14;;;-3.40;100.00
61697;BME280;47610;52.252;20.922;2022-11-20T23:45:38;99519.71;;;-3.42;100.00
61697;BME280;47610;52.252;20.922;2022-11-20T23:51:00;99517.27;;;-3.42;100.00
61697;BME280;47610;52.252;20.922;2022-11-20T23:56:23;99514.25;;;-3.39;100.00
